sensor_id;sensor_type;location;lat;lon;timestamp;temperature;humidity
23207;DHT22;11773;52.570;13.052;2023-03-20T00:02:29;11.40;99.90
23207;DHT22;11773;52.570;13.052;2023-03-20T00:04:58;11.30;99.90
23207;DHT22;11773;52.570;13.052;2023-03-20T00:07:28;11.20;99.90
23207;DHT22;11773;52.570;13.052;2023-03-20T00:09:58;11.20;99.90
23207;DHT22;11773;52.570;13.052;2023-03-20T00:12:27;11.20;99.90
23207;DHT22;11773;52.570;13.052;2023-03-20T00:14:59;11.20;99.90
23207;DHT22;11773;52.570;13.052;2023-03-20T00:17:30;11.10;99.90
23207;DHT22;11773;52.570;13.052;2023-03-20T00:20:00;11.20;99.90
23207;DHT22;11773;52.570;13.052;2023-03-20T00:22:29;11.10;99.90
23207;DHT22;11773;52.570;13.052;2023-03-20T00:24:59;11.10;99.90
23207;DHT22;11773;52.570;13.052;2023-03-20T00:27:28;11.00;99.90
23207;DHT22;11773;52.570;13.052;2023-03-20T00:29:58;11.00;99.90
23207;DHT22;11773;52.570;13.052;2023-03-20T00:32:28;10.90;99.90
23207;DHT22;11773;52.570;13.052;2023-03-20T00:34:58;11.00;99.90
23207;DHT22;11773;52.570;13.052;2023-03-20T00:37:28;10.90;99.90
23207;DHT22;11773;52.570;13.052;2023-03-20T00:39:57;10.90;99.90
23207;DHT22;11773;52.570;13.052;2023-03-20T00:42:26;10.80;99.90
23207;DHT22;11773;52.570;13.052;2023-03-20T00:44:56;10.70;99.90
23207;DHT22;11773;52.570;13.052;2023-03-20T00:47:27;10.50;99.90
23207;DHT22;11773;52.570;13.052;2023-03-20T00:49:57;10.50;99.90
23207;DHT22;11773;52.570;13.052;2023-03-20T00:52:27;10.60;99.90
23207;DHT22;11773;52.570;13.052;2023-03-20T00:54:57;10.60;99.90
23207;DHT22;11773;52.570;13.052;2023-03-20T00:57:29;10.50;99.90
23207;DHT22;11773;52.570;13.052;2023-03-20T01:00:06;10.50;99.90
23207;DHT22;11773;52.570;13.052;2023-03-20T01:02:47;10.70;99.90
23207;DHT22;11773;52.570;13.052;2023-03-20T01:05:16;10.60;99.90
23207;DHT22;11773;52.570;13.052;2023-03-20T01:07:46;10.70;99.90
23207;DHT22;11773;52.570;13.052;2023-03-20T01:10:17;10.60;99.90
23207;DHT22;11773;52.570;13.052;2023-03-20T01:12:47;10.50;99.90
23207;DHT22;11773;52.570;13.052;2023-03-20T01:15:20;10.60;99.90
23207;DHT22;11773;52.570;13.052;2023-03-20T01:17:51;10.70;99.90
23207;DHT22;11773;52.570;13.052;2023-03-20T01:20:23;10.90;99.90
23207;DHT22;11773;52.570;13.052;2023-03-20T01:22:55;10.70;99.90
23207;DHT22;11773;52.570;13.052;2023-03-20T01:25:25;10.70;99.90
23207;DHT22;11773;52.570;13.052;2023-03-20T01:27:54;10.60;99.90
23207;DHT22;11773;52.570;13.052;2023-03-20T01:30:27;10.60;99.90
23207;DHT22;11773;52.570;13.052;2023-03-20T01:32:59;10.70;99.90
23207;DHT22;11773;52.570;13.052;2023-03-20T01:35:29;10.60;99.90
23207;DHT22;11773;52.570;13.052;2023-03-20T01:37:59;10.60;99.90
23207;DHT22;11773;52.570;13.052;2023-03-20T01:43:16;10.60;99.90
23207;DHT22;11773;52.570;13.052;2023-03-20T01:51:28;10.60;99.90
23207;DHT22;11773;52.570;13.052;2023-03-20T01:54:03;10.50;99.90
23207;DHT22;11773;52.570;13.052;2023-03-20T01:56:38;10.60;99.90
23207;DHT22;11773;52.570;13.052;2023-03-20T01:59:23;10.60;99.90
23207;DHT22;11773;52.570;13.052;2023-03-20T02:02:12;10.60;99.90
23207;DHT22;11773;52.570;13.052;2023-03-20T02:04:45;10.50;99.90
23207;DHT22;11773;52.570;13.052;2023-03-20T02:07:19;10.50;99.90
23207;DHT22;11773;52.570;13.052;2023-03-20T02:09:50;10.50;99.90
23207;DHT22;11773;52.570;13.052;2023-03-20T02:12:21;10.50;99.90
23207;DHT22;11773;52.570;13.052;2023-03-20T02:14:51;10.50;99.90
23207;DHT22;11773;52.570;13.052;2023-03-20T02:17:20;10.60;99.90
23207;DHT22;11773;52.570;13.052;2023-03-20T02:20:12;10.50;99.90
23207;DHT22;11773;52.570;13.052;2023-03-20T02:26:08;10.50;99.90
23207;DHT22;11773;52.570;13.052;2023-03-20T02:28:47;10.50;99.90
23207;DHT22;11773;52.570;13.052;2023-03-20T02:31:29;10.40;99.90
23207;DHT22;11773;52.570;13.052;2023-03-20T02:39:51;10.40;99.90
23207;DHT22;11773;52.570;13.052;2023-03-20T02:48:02;10.30;99.90
23207;DHT22;11773;52.570;13.052;2023-03-20T02:50:55;10.30;99.90
23207;DHT22;11773;52.570;13.052;2023-03-20T02:53:48;10.30;99.90
23207;DHT22;11773;52.570;13.052;2023-03-20T02:56:35;10.40;99.90
23207;DHT22;11773;52.570;13.052;2023-03-20T02:59:21;10.40;99.90
23207;DHT22;11773;52.570;13.052;2023-03-20T03:01:58;10.40;99.90
23207;DHT22;11773;52.570;13.052;2023-03-20T03:04:31;10.30;99.90
23207;DHT22;11773;52.570;13.052;2023-03-20T03:07:02;10.40;99.90
23207;DHT22;11773;52.570;13.052;2023-03-20T03:09:40;10.40;99.90
23207;DHT22;11773;52.570;13.052;2023-03-20T03:12:18;10.40;99.90
23207;DHT22;11773;52.570;13.052;2023-03-20T03:14:54;10.40;99.90
23207;DHT22;11773;52.570;13.052;2023-03-20T03:17:29;10.50;99.90
23207;DHT22;11773;52.570;13.052;2023-03-20T03:20:04;10.50;99.90
23207;DHT22;11773;52.570;13.052;2023-03-20T03:22:36;10.40;99.90
23207;DHT22;11773;52.570;13.052;2023-03-20T03:25:05;10.40;99.90
23207;DHT22;11773;52.570;13.052;2023-03-20T03:27:43;10.30;99.90
23207;DHT22;11773;52.570;13.052;2023-03-20T03:30:16;10.40;99.90
23207;DHT22;11773;52.570;13.052;2023-03-20T03:35:45;10.50;99.90
23207;DHT22;11773;52.570;13.052;2023-03-20T03:38:24;10.50;99.90
23207;DHT22;11773;52.570;13.052;2023-03-20T03:41:06;10.30;99.90
23207;DHT22;11773;52.570;13.052;2023-03-20T03:46:45;10.40;99.90
23207;DHT22;11773;52.570;13.052;2023-03-20T03:49:40;10.30;99.90
23207;DHT22;11773;52.570;13.052;2023-03-20T03:52:14;10.30;99.90
23207;DHT22;11773;52.570;13.052;2023-03-20T03:54:58;10.30;99.90
23207;DHT22;11773;52.570;13.052;2023-03-20T03:57:47;10.30;99.90
23207;DHT22;11773;52.570;13.052;2023-03-20T04:00:19;10.30;99.90
23207;DHT22;11773;52.570;13.052;2023-03-20T04:02:54;10.40;99.90
23207;DHT22;11773;52.570;13.052;2023-03-20T04:05:27;10.40;99.90
23207;DHT22;11773;52.570;13.052;2023-03-20T04:08:01;10.40;99.90
23207;DHT22;11773;52.570;13.052;2023-03-20T04:10:32;10.40;99.90
23207;DHT22;11773;52.570;13.052;2023-03-20T04:13:02;10.40;99.90
23207;DHT22;11773;52.570;13.052;2023-03-20T04:15:32;10.40;99.90
23207;DHT22;11773;52.570;13.052;2023-03-20T04:18:02;10.40;99.90
23207;DHT22;11773;52.570;13.052;2023-03-20T04:20:32;10.60;99.90
23207;DHT22;11773;52.570;13.052;2023-03-20T04:23:01;10.70;99.90
23207;DHT22;11773;52.570;13.052;2023-03-20T04:25:32;10.60;99.90
23207;DHT22;11773;52.570;13.052;2023-03-20T04:28:02;10.50;99.90
23207;DHT22;11773;52.570;13.052;2023-03-20T04:30:31;10.50;99.90
23207;DHT22;11773;52.570;13.052;2023-03-20T04:33:01;10.60;99.90
23207;DHT22;11773;52.570;13.052;2023-03-20T04:35:30;10.60;99.90
23207;DHT22;11773;52.570;13.052;2023-03-20T04:38:00;10.60;99.90
23207;DHT22;11773;52.570;13.052;2023-03-20T04:40:30;10.60;99.90
23207;DHT22;11773;52.570;13.052;2023-03-20T04:42:59;10.50;99.90
23207;DHT22;11773;52.570;13.052;2023-03-20T04:45:29;10.50;99.90
23207;DHT22;11773;52.570;13.052;2023-03-20T04:47:58;10.50;99.90
23207;DHT22;11773;52.570;13.052;2023-03-20T04:50:28;10.50;99.90
23207;DHT22;11773;52.570;13.052;2023-03-20T04:52:57;10.50;99.90
23207;DHT22;11773;52.570;13.052;2023-03-20T04:55:27;10.50;99.90
23207;DHT22;11773;52.570;13.052;2023-03-20T04:57:57;10.40;99.90
23207;DHT22;11773;52.570;13.052;2023-03-20T05:00:26;10.40;99.90
23207;DHT22;11773;52.570;13.052;2023-03-20T05:02:56;10.40;99.90
23207;DHT22;11773;52.570;13.052;2023-03-20T05:05:25;10.40;99.90
23207;DHT22;11773;52.570;13.052;2023-03-20T05:07:55;10.50;99.90
23207;DHT22;11773;52.570;13.052;2023-03-20T05:10:25;10.60;99.90
23207;DHT22;11773;52.570;13.052;2023-03-20T05:12:54;10.50;99.90
23207;DHT22;11773;52.570;13.052;2023-03-20T05:15:24;10.50;99.90
23207;DHT22;11773;52.570;13.052;2023-03-20T05:17:53;10.50;99.90
23207;DHT22;11773;52.570;13.052;2023-03-20T05:20:23;10.50;99.90
23207;DHT22;11773;52.570;13.052;2023-03-20T05:22:53;10.60;99.90
23207;DHT22;11773;52.570;13.052;2023-03-20T05:25:22;10.50;99.90
23207;DHT22;11773;52.570;13.052;2023-03-20T05:27:52;10.50;99.90
23207;DHT22;11773;52.570;13.052;2023-03-20T05:30:22;10.50;99.90
23207;DHT22;11773;52.570;13.052;2023-03-20T05:32:51;10.50;99.90
23207;DHT22;11773;52.570;13.052;2023-03-20T05:35:21;10.50;99.90
23207;DHT22;11773;52.570;13.052;2023-03-20T05:37:50;10.40;99.90
23207;DHT22;11773;52.570;13.052;2023-03-20T05:40:20;10.40;99.90
23207;DHT22;11773;52.570;13.052;2023-03-20T05:42:51;10.50;99.90
23207;DHT22;11773;52.570;13.052;2023-03-20T05:45:21;10.30;99.90
23207;DHT22;11773;52.570;13.052;2023-03-20T05:47:50;10.40;99.90
23207;DHT22;11773;52.570;13.052;2023-03-20T05:50:20;10.50;99.90
23207;DHT22;11773;52.570;13.052;2023-03-20T05:52:49;10.50;99.90
23207;DHT22;11773;52.570;13.052;2023-03-20T05:55:19;10.50;99.90
23207;DHT22;11773;52.570;13.052;2023-03-20T05:57:48;10.30;99.90
23207;DHT22;11773;52.570;13.052;2023-03-20T06:00:18;10.20;99.90
23207;DHT22;11773;52.570;13.052;2023-03-20T06:02:48;10.20;99.90
23207;DHT22;11773;52.570;13.052;2023-03-20T06:05:17;10.10;99.90
23207;DHT22;11773;52.570;13.052;2023-03-20T06:07:47;10.30;99.90
23207;DHT22;11773;52.570;13.052;2023-03-20T06:10:17;10.40;99.90
23207;DHT22;11773;52.570;13.052;2023-03-20T06:12:47;10.40;99.90
23207;DHT22;11773;52.570;13.052;2023-03-20T06:15:17;10.40;99.90
23207;DHT22;11773;52.570;13.052;2023-03-20T06:17:46;10.30;99.90
23207;DHT22;11773;52.570;13.052;2023-03-20T06:20:16;10.20;99.90
23207;DHT22;11773;52.570;13.052;2023-03-20T06:22:46;10.20;99.90
23207;DHT22;11773;52.570;13.052;2023-03-20T06:25:16;10.30;99.90
23207;DHT22;11773;52.570;13.052;2023-03-20T06:27:47;10.20;99.90
23207;DHT22;11773;52.570;13.052;2023-03-20T06:30:17;10.10;99.90
23207;DHT22;11773;52.570;13.052;2023-03-20T06:32:46;10.20;99.90
23207;DHT22;11773;52.570;13.052;2023-03-20T06:35:16;10.30;99.90
23207;DHT22;11773;52.570;13.052;2023-03-20T06:37:46;10.50;99.90
23207;DHT22;11773;52.570;13.052;2023-03-20T06:40:16;10.40;99.90
23207;DHT22;11773;52.570;13.052;2023-03-20T06:42:45;10.50;99.90
23207;DHT22;11773;52.570;13.052;2023-03-20T06:45:15;10.50;99.90
23207;DHT22;11773;52.570;13.052;2023-03-20T06:47:44;10.60;99.90
23207;DHT22;11773;52.570;13.052;2023-03-20T06:50:14;10.50;99.90
23207;DHT22;11773;52.570;13.052;2023-03-20T06:52:44;10.50;99.90
23207;DHT22;11773;52.570;13.052;2023-03-20T06:55:14;10.80;99.90
23207;DHT22;11773;52.570;13.052;2023-03-20T06:57:44;10.90;99.90
23207;DHT22;11773;52.570;13.052;2023-03-20T07:00:14;10.70;99.90
23207;DHT22;11773;52.570;13.052;2023-03-20T07:02:44;10.80;99.90
23207;DHT22;11773;52.570;13.052;2023-03-20T07:05:14;10.90;99.90
23207;DHT22;11773;52.570;13.052;2023-03-20T07:07:45;10.90;99.90
23207;DHT22;11773;52.570;13.052;2023-03-20T07:10:14;10.80;99.90
23207;DHT22;11773;52.570;13.052;2023-03-20T07:12:44;10.90;99.90
23207;DHT22;11773;52.570;13.052;2023-03-20T07:15:13;10.90;99.90
23207;DHT22;11773;52.570;13.052;2023-03-20T07:17:43;11.00;99.90
23207;DHT22;11773;52.570;13.052;2023-03-20T07:20:13;11.00;99.90
23207;DHT22;11773;52.570;13.052;2023-03-20T07:22:43;11.20;99.90
23207;DHT22;11773;52.570;13.052;2023-03-20T07:25:13;11.20;99.90
23207;DHT22;11773;52.570;13.052;2023-03-20T07:27:43;11.30;99.90
23207;DHT22;11773;52.570;13.052;2023-03-20T07:30:14;11.20;99.90
23207;DHT22;11773;52.570;13.052;2023-03-20T07:32:45;11.20;99.90
23207;DHT22;11773;52.570;13.052;2023-03-20T07:35:15;11.30;99.90
23207;DHT22;11773;52.570;13.052;2023-03-20T07:37:45;11.30;99.90
23207;DHT22;11773;52.570;13.052;2023-03-20T07:40:15;11.40;99.90
23207;DHT22;11773;52.570;13.052;2023-03-20T07:42:44;11.40;99.90
23207;DHT22;11773;52.570;13.052;2023-03-20T07:45:17;11.30;99.90
23207;DHT22;11773;52.570;13.052;2023-03-20T07:47:46;11.30;99.90
23207;DHT22;11773;52.570;13.052;2023-03-20T07:50:16;11.30;99.90
23207;DHT22;11773;52.570;13.052;2023-03-20T07:52:49;11.30;99.90
23207;DHT22;11773;52.570;13.052;2023-03-20T07:55:19;11.40;99.90
23207;DHT22;11773;52.570;13.052;2023-03-20T07:57:49;11.50;99.90
23207;DHT22;11773;52.570;13.052;2023-03-20T08:00:19;11.40;99.90
23207;DHT22;11773;52.570;13.052;2023-03-20T08:02:49;11.30;99.90
23207;DHT22;11773;52.570;13.052;2023-03-20T08:05:19;11.50;99.90
23207;DHT22;11773;52.570;13.052;2023-03-20T08:07:48;11.50;99.90
23207;DHT22;11773;52.570;13.052;2023-03-20T08:10:18;11.60;99.90
23207;DHT22;11773;52.570;13.052;2023-03-20T08:12:48;11.60;99.90
23207;DHT22;11773;52.570;13.052;2023-03-20T08:15:17;11.70;99.90
23207;DHT22;11773;52.570;13.052;2023-03-20T08:17:48;11.70;99.90
23207;DHT22;11773;52.570;13.052;2023-03-20T08:20:17;11.70;99.90
23207;DHT22;11773;52.570;13.052;2023-03-20T08:22:48;11.90;99.90
23207;DHT22;11773;52.570;13.052;2023-03-20T08:25:18;12.10;99.90
23207;DHT22;11773;52.570;13.052;2023-03-20T08:27:48;12.00;99.90
23207;DHT22;11773;52.570;13.052;2023-03-20T08:30:18;12.10;99.90
23207;DHT22;11773;52.570;13.052;2023-03-20T08:32:47;12.20;99.90
23207;DHT22;11773;52.570;13.052;2023-03-20T08:35:17;12.40;99.90
23207;DHT22;11773;52.570;13.052;2023-03-20T08:37:48;12.50;99.90
23207;DHT22;11773;52.570;13.052;2023-03-20T08:40:17;12.50;99.90
23207;DHT22;11773;52.570;13.052;2023-03-20T08:42:47;12.70;99.90
23207;DHT22;11773;52.570;13.052;2023-03-20T08:45:16;12.60;99.90
23207;DHT22;11773;52.570;13.052;2023-03-20T08:47:49;12.90;99.90
23207;DHT22;11773;52.570;13.052;2023-03-20T08:50:19;13.10;99.90
23207;DHT22;11773;52.570;13.052;2023-03-20T08:52:48;13.00;99.90
23207;DHT22;11773;52.570;13.052;2023-03-20T08:55:18;13.10;99.90
23207;DHT22;11773;52.570;13.052;2023-03-20T08:57:47;13.10;99.90
23207;DHT22;11773;52.570;13.052;2023-03-20T09:00:17;13.30;99.90
23207;DHT22;11773;52.570;13.052;2023-03-20T09:02:48;13.30;99.90
23207;DHT22;11773;52.570;13.052;2023-03-20T09:05:18;13.30;99.90
23207;DHT22;11773;52.570;13.052;2023-03-20T09:07:48;13.30;99.90
23207;DHT22;11773;52.570;13.052;2023-03-20T09:10:18;13.30;99.90
23207;DHT22;11773;52.570;13.052;2023-03-20T09:12:47;13.30;99.90
23207;DHT22;11773;52.570;13.052;2023-03-20T09:15:17;13.30;99.90
23207;DHT22;11773;52.570;13.052;2023-03-20T09:17:46;13.30;99.90
23207;DHT22;11773;52.570;13.052;2023-03-20T09:20:16;13.20;99.90
23207;DHT22;11773;52.570;13.052;2023-03-20T09:22:45;13.10;99.90
23207;DHT22;11773;52.570;13.052;2023-03-20T09:25:15;13.00;99.90
23207;DHT22;11773;52.570;13.052;2023-03-20T09:27:44;13.00;99.90
23207;DHT22;11773;52.570;13.052;2023-03-20T09:30:14;12.90;99.90
23207;DHT22;11773;52.570;13.052;2023-03-20T09:32:44;13.00;99.90
23207;DHT22;11773;52.570;13.052;2023-03-20T09:35:13;13.00;99.90
23207;DHT22;11773;52.570;13.052;2023-03-20T09:37:43;13.00;99.90
23207;DHT22;11773;52.570;13.052;2023-03-20T09:40:27;13.10;99.90
23207;DHT22;11773;52.570;13.052;2023-03-20T09:46:17;13.00;99.90
23207;DHT22;11773;52.570;13.052;2023-03-20T09:49:16;13.20;99.90
23207;DHT22;11773;52.570;13.052;2023-03-20T09:52:20;13.20;99.90
23207;DHT22;11773;52.570;13.052;2023-03-20T09:55:07;13.00;99.90
23207;DHT22;11773;52.570;13.052;2023-03-20T09:57:46;13.10;99.90
23207;DHT22;11773;52.570;13.052;2023-03-20T10:00:23;13.00;99.90
23207;DHT22;11773;52.570;13.052;2023-03-20T10:03:03;13.10;99.90
23207;DHT22;11773;52.570;13.052;2023-03-20T10:05:48;13.20;99.90
23207;DHT22;11773;52.570;13.052;2023-03-20T10:08:15;13.20;99.90
23207;DHT22;11773;52.570;13.052;2023-03-20T10:11:09;13.20;99.90
23207;DHT22;11773;52.570;13.052;2023-03-20T10:13:42;13.10;99.90
23207;DHT22;11773;52.570;13.052;2023-03-20T10:22:20;13.30;99.90
23207;DHT22;11773;52.570;13.052;2023-03-20T10:24:54;13.30;99.90
23207;DHT22;11773;52.570;13.052;2023-03-20T10:27:47;13.30;99.90
23207;DHT22;11773;52.570;13.052;2023-03-20T10:30:24;13.20;99.90
23207;DHT22;11773;52.570;13.052;2023-03-20T10:39:12;13.40;99.90
23207;DHT22;11773;52.570;13.052;2023-03-20T10:41:52;13.30;99.90
23207;DHT22;11773;52.570;13.052;2023-03-20T10:44:36;13.10;99.90
23207;DHT22;11773;52.570;13.052;2023-03-20T10:47:09;13.30;99.90
23207;DHT22;11773;52.570;13.052;2023-03-20T10:49:43;13.40;99.90
23207;DHT22;11773;52.570;13.052;2023-03-20T10:52:25;13.50;99.90
23207;DHT22;11773;52.570;13.052;2023-03-20T10:55:05;13.50;99.90
23207;DHT22;11773;52.570;13.052;2023-03-20T10:57:43;13.30;99.90
23207;DHT22;11773;52.570;13.052;2023-03-20T11:00:23;13.30;99.90
23207;DHT22;11773;52.570;13.052;2023-03-20T11:02:54;13.40;99.90
23207;DHT22;11773;52.570;13.052;2023-03-20T11:05:28;13.40;99.90
23207;DHT22;11773;52.570;13.052;2023-03-20T11:08:04;13.40;99.90
23207;DHT22;11773;52.570;13.052;2023-03-20T11:10:42;13.50;99.90
23207;DHT22;11773;52.570;13.052;2023-03-20T11:13:16;13.50;99.90
23207;DHT22;11773;52.570;13.052;2023-03-20T11:18:49;13.50;99.90
23207;DHT22;11773;52.570;13.052;2023-03-20T11:21:28;13.50;99.90
23207;DHT22;11773;52.570;13.052;2023-03-20T11:23:54;13.50;99.90
23207;DHT22;11773;52.570;13.052;2023-03-20T11:26:38;13.60;99.90
23207;DHT22;11773;52.570;13.052;2023-03-20T11:29:21;13.50;99.90
23207;DHT22;11773;52.570;13.052;2023-03-20T11:31:50;13.50;99.90
23207;DHT22;11773;52.570;13.052;2023-03-20T11:34:22;13.40;99.90
23207;DHT22;11773;52.570;13.052;2023-03-20T11:36:59;13.30;99.90
23207;DHT22;11773;52.570;13.052;2023-03-20T11:39:31;13.30;99.90
23207;DHT22;11773;52.570;13.052;2023-03-20T11:42:01;13.40;99.90
23207;DHT22;11773;52.570;13.052;2023-03-20T11:44:33;13.30;99.90
23207;DHT22;11773;52.570;13.052;2023-03-20T11:47:06;13.40;99.90
23207;DHT22;11773;52.570;13.052;2023-03-20T11:49:48;13.40;99.90
23207;DHT22;11773;52.570;13.052;2023-03-20T11:52:31;13.50;99.90
23207;DHT22;11773;52.570;13.052;2023-03-20T11:55:06;13.40;99.90
23207;DHT22;11773;52.570;13.052;2023-03-20T11:57:41;13.60;99.90
23207;DHT22;11773;52.570;13.052;2023-03-20T12:00:21;13.50;99.90
23207;DHT22;11773;52.570;13.052;2023-03-20T12:02:52;13.50;99.90
23207;DHT22;11773;52.570;13.052;2023-03-20T12:05:34;13.50;99.90
23207;DHT22;11773;52.570;13.052;2023-03-20T12:08:09;13.30;99.90
23207;DHT22;11773;52.570;13.052;2023-03-20T12:10:53;13.20;99.90
23207;DHT22;11773;52.570;13.052;2023-03-20T12:13:25;13.30;99.90
23207;DHT22;11773;52.570;13.052;2023-03-20T12:16:03;13.30;99.90
23207;DHT22;11773;52.570;13.052;2023-03-20T12:18:59;13.30;99.90
23207;DHT22;11773;52.570;13.052;2023-03-20T12:21:43;13.20;99.90
23207;DHT22;11773;52.570;13.052;2023-03-20T12:24:39;13.20;99.90
23207;DHT22;11773;52.570;13.052;2023-03-20T12:27:27;13.20;99.90
23207;DHT22;11773;52.570;13.052;2023-03-20T12:30:28;13.20;99.90
23207;DHT22;11773;52.570;13.052;2023-03-20T12:33:10;13.20;99.90
23207;DHT22;11773;52.570;13.052;2023-03-20T12:35:45;13.20;99.90
23207;DHT22;11773;52.570;13.052;2023-03-20T12:38:25;13.20;99.90
23207;DHT22;11773;52.570;13.052;2023-03-20T12:46:43;13.80;99.90
23207;DHT22;11773;52.570;13.052;2023-03-20T12:49:37;13.70;99.90
23207;DHT22;11773;52.570;13.052;2023-03-20T12:52:20;13.60;99.90
23207;DHT22;11773;52.570;13.052;2023-03-20T12:55:30;13.60;99.90
23207;DHT22;11773;52.570;13.052;2023-03-20T13:00:41;13.80;99.90
23207;DHT22;11773;52.570;13.052;2023-03-20T13:03:31;13.80;99.90
23207;DHT22;11773;52.570;13.052;2023-03-20T13:06:27;13.80;99.90
23207;DHT22;11773;52.570;13.052;2023-03-20T13:09:22;13.70;99.90
23207;DHT22;11773;52.570;13.052;2023-03-20T13:12:13;13.70;99.90
23207;DHT22;11773;52.570;13.052;2023-03-20T13:20:43;13.80;99.90
23207;DHT22;11773;52.570;13.052;2023-03-20T13:23:28;13.80;99.90
23207;DHT22;11773;52.570;13.052;2023-03-20T13:29:02;13.80;99.90
23207;DHT22;11773;52.570;13.052;2023-03-20T13:31:43;13.70;99.90
23207;DHT22;11773;52.570;13.052;2023-03-20T13:34:46;13.60;99.90
23207;DHT22;11773;52.570;13.052;2023-03-20T13:37:32;13.60;99.90
23207;DHT22;11773;52.570;13.052;2023-03-20T13:40:17;13.40;99.90
23207;DHT22;11773;52.570;13.052;2023-03-20T13:46:11;13.60;99.90
23207;DHT22;11773;52.570;13.052;2023-03-20T13:48:45;13.50;99.90
23207;DHT22;11773;52.570;13.052;2023-03-20T13:57:19;13.40;99.90
23207;DHT22;11773;52.570;13.052;2023-03-20T14:03:16;13.40;99.90
23207;DHT22;11773;52.570;13.052;2023-03-20T14:05:55;13.40;99.90
23207;DHT22;11773;52.570;13.052;2023-03-20T14:08:33;13.50;99.90
23207;DHT22;11773;52.570;13.052;2023-03-20T14:11:15;13.10;99.90
23207;DHT22;11773;52.570;13.052;2023-03-20T14:13:56;13.30;99.90
23207;DHT22;11773;52.570;13.052;2023-03-20T14:16:44;13.10;99.90
23207;DHT22;11773;52.570;13.052;2023-03-20T14:19:16;13.20;99.90
23207;DHT22;11773;52.570;13.052;2023-03-20T14:21:52;13.50;99.90
23207;DHT22;11773;52.570;13.052;2023-03-20T14:24:25;13.50;99.90
23207;DHT22;11773;52.570;13.052;2023-03-20T14:26:57;13.50;99.90
23207;DHT22;11773;52.570;13.052;2023-03-20T14:29:35;13.70;99.90
23207;DHT22;11773;52.570;13.052;2023-03-20T14:34:51;13.30;99.90
23207;DHT22;11773;52.570;13.052;2023-03-20T14:40:05;13.30;99.90
23207;DHT22;11773;52.570;13.052;2023-03-20T14:42:48;13.30;99.90
23207;DHT22;11773;52.570;13.052;2023-03-20T14:45:37;13.40;99.90
23207;DHT22;11773;52.570;13.052;2023-03-20T14:48:25;13.20;99.90
23207;DHT22;11773;52.570;13.052;2023-03-20T14:54:21;13.30;99.90
23207;DHT22;11773;52.570;13.052;2023-03-20T14:56:52;13.30;99.90
23207;DHT22;11773;52.570;13.052;2023-03-20T14:59:20;13.50;99.90
23207;DHT22;11773;52.570;13.052;2023-03-20T15:01:56;13.30;99.90
23207;DHT22;11773;52.570;13.052;2023-03-20T15:04:41;13.40;99.90
23207;DHT22;11773;52.570;13.052;2023-03-20T15:07:22;13.40;99.90
23207;DHT22;11773;52.570;13.052;2023-03-20T15:09:56;13.40;99.90
23207;DHT22;11773;52.570;13.052;2023-03-20T15:12:33;13.50;99.90
23207;DHT22;11773;52.570;13.052;2023-03-20T15:15:06;13.30;99.90
23207;DHT22;11773;52.570;13.052;2023-03-20T15:17:44;13.50;99.90
23207;DHT22;11773;52.570;13.052;2023-03-20T15:20:26;13.50;99.90
23207;DHT22;11773;52.570;13.052;2023-03-20T15:22:57;13.40;99.90
23207;DHT22;11773;52.570;13.052;2023-03-20T15:25:40;13.60;99.90
23207;DHT22;11773;52.570;13.052;2023-03-20T15:28:25;13.60;99.90
23207;DHT22;11773;52.570;13.052;2023-03-20T15:30:57;13.40;99.90
23207;DHT22;11773;52.570;13.052;2023-03-20T15:33:31;13.40;99.90
23207;DHT22;11773;52.570;13.052;2023-03-20T15:36:20;13.30;99.90
23207;DHT22;11773;52.570;13.052;2023-03-20T15:38:52;13.50;99.90
23207;DHT22;11773;52.570;13.052;2023-03-20T15:41:46;13.30;99.90
23207;DHT22;11773;52.570;13.052;2023-03-20T15:44:34;13.30;99.90
23207;DHT22;11773;52.570;13.052;2023-03-20T15:47:18;13.40;99.90
23207;DHT22;11773;52.570;13.052;2023-03-20T15:49:55;13.40;99.90
23207;DHT22;11773;52.570;13.052;2023-03-20T15:52:41;13.40;99.90
23207;DHT22;11773;52.570;13.052;2023-03-20T15:55:16;13.30;99.90
23207;DHT22;11773;52.570;13.052;2023-03-20T15:57:48;13.40;99.90
23207;DHT22;11773;52.570;13.052;2023-03-20T16:00:25;13.10;99.90
23207;DHT22;11773;52.570;13.052;2023-03-20T16:03:06;13.00;99.90
23207;DHT22;11773;52.570;13.052;2023-03-20T16:05:37;13.00;99.90
23207;DHT22;11773;52.570;13.052;2023-03-20T16:08:24;13.00;99.90
23207;DHT22;11773;52.570;13.052;2023-03-20T16:11:00;13.10;99.90
23207;DHT22;11773;52.570;13.052;2023-03-20T16:13:38;13.30;99.90
23207;DHT22;11773;52.570;13.052;2023-03-20T16:16:16;13.30;99.90
23207;DHT22;11773;52.570;13.052;2023-03-20T16:18:44;13.20;99.90
23207;DHT22;11773;52.570;13.052;2023-03-20T16:21:21;13.20;99.90
23207;DHT22;11773;52.570;13.052;2023-03-20T16:23:55;13.10;99.90
23207;DHT22;11773;52.570;13.052;2023-03-20T16:26:27;13.10;99.90
23207;DHT22;11773;52.570;13.052;2023-03-20T16:29:00;13.10;99.90
23207;DHT22;11773;52.570;13.052;2023-03-20T16:31:31;13.20;99.90
23207;DHT22;11773;52.570;13.052;2023-03-20T16:34:08;13.10;99.90
23207;DHT22;11773;52.570;13.052;2023-03-20T16:36:39;13.00;99.90
23207;DHT22;11773;52.570;13.052;2023-03-20T16:39:20;13.10;99.90
23207;DHT22;11773;52.570;13.052;2023-03-20T16:44:54;13.00;99.90
23207;DHT22;11773;52.570;13.052;2023-03-20T16:47:35;13.00;99.90
23207;DHT22;11773;52.570;13.052;2023-03-20T16:50:22;13.00;99.90
23207;DHT22;11773;52.570;13.052;2023-03-20T16:52:58;13.00;99.90
23207;DHT22;11773;52.570;13.052;2023-03-20T16:55:30;13.10;99.90
23207;DHT22;11773;52.570;13.052;2023-03-20T16:58:03;12.80;99.90
23207;DHT22;11773;52.570;13.052;2023-03-20T17:03:33;12.70;99.90
23207;DHT22;11773;52.570;13.052;2023-03-20T17:06:03;12.80;99.90
23207;DHT22;11773;52.570;13.052;2023-03-20T17:08:41;12.70;99.90
23207;DHT22;11773;52.570;13.052;2023-03-20T17:11:21;12.70;99.90
23207;DHT22;11773;52.570;13.052;2023-03-20T17:13:50;12.70;99.90
23207;DHT22;11773;52.570;13.052;2023-03-20T17:16:21;12.70;99.90
23207;DHT22;11773;52.570;13.052;2023-03-20T17:19:15;12.70;99.90
23207;DHT22;11773;52.570;13.052;2023-03-20T17:21:47;12.70;99.90
23207;DHT22;11773;52.570;13.052;2023-03-20T17:24:17;12.70;99.90
23207;DHT22;11773;52.570;13.052;2023-03-20T17:26:51;12.60;99.90
23207;DHT22;11773;52.570;13.052;2023-03-20T17:29:22;12.60;99.90
23207;DHT22;11773;52.570;13.052;2023-03-20T17:31:51;12.60;99.90
23207;DHT22;11773;52.570;13.052;2023-03-20T17:34:21;12.70;99.90